sensor_id;sensor_type;location;lat;lon;timestamp;pressure;altitude;pressure_sealevel;temperature;humidity
38466;BME280;24244;51.950;5.902;2022-12-18T00:01:50;102822.19;;;-1.90;77.97
38466;BME280;24244;51.950;5.902;2022-12-18T00:04:21;102823.25;;;-1.95;77.57
38466;BME280;24244;51.950;5.902;2022-12-18T00:06:48;102818.09;;;-1.97;78.10
38466;BME280;24244;51.950;5.902;2022-12-18T00:09:15;102807.81;;;-2.00;77.60
38466;BME280;24244;51.950;5.902;2022-12-18T00:11:42;102801.75;;;-2.01;77.55
38466;BME280;24244;51.950;5.902;2022-12-18T00:14:12;102794.00;;;-2.04;77.85
38466;BME280;24244;51.950;5.902;2022-12-18T00:16:40;102792.41;;;-2.06;77.71
38466;BME280;24244;51.950;5.902;2022-12-18T00:19:10;102806.31;;;-2.07;77.93
38466;BME280;24244;51.950;5.902;2022-12-18T00:21:40;102802.88;;;-2.08;77.72
38466;BME280;24244;51.950;5.902;2022-12-18T00:24:08;102797.69;;;-2.09;77.52
38466;BME280;24244;51.950;5.902;2022-12-18T00:26:36;102790.97;;;-2.15;77.34
38466;BME280;24244;51.950;5.902;2022-12-18T00:29:06;102799.78;;;-2.19;78.17
38466;BME280;24244;51.950;5.902;2022-12-18T00:31:35;102799.09;;;-2.24;77.91
38466;BME280;24244;51.950;5.902;2022-12-18T00:34:02;102795.69;;;-2.26;77.97
38466;BME280;24244;51.950;5.902;2022-12-18T00:36:30;102784.53;;;-2.29;77.79
38466;BME280;24244;51.950;5.902;2022-12-18T00:38:58;102788.91;;;-2.30;77.93
38466;BME280;24244;51.950;5.902;2022-12-18T00:41:26;102789.84;;;-2.32;78.07
38466;BME280;24244;51.950;5.902;2022-12-18T00:44:13;102776.94;;;-2.35;77.80
38466;BME280;24244;51.950;5.902;2022-12-18T00:46:42;102796.13;;;-2.38;77.43
38466;BME280;24244;51.950;5.902;2022-12-18T00:49:10;102799.63;;;-2.39;78.26
38466;BME280;24244;51.950;5.902;2022-12-18T00:51:37;102799.63;;;-2.39;77.85
38466;BME280;24244;51.950;5.902;2022-12-18T00:54:04;102796.22;;;-2.41;78.05
38466;BME280;24244;51.950;5.902;2022-12-18T00:56:31;102803.13;;;-2.40;77.69
38466;BME280;24244;51.950;5.902;2022-12-18T00:58:58;102803.06;;;-2.39;77.83
38466;BME280;24244;51.950;5.902;2022-12-18T01:01:24;102795.38;;;-2.42;77.92
38466;BME280;24244;51.950;5.902;2022-12-18T01:03:53;102795.47;;;-2.45;77.89
38466;BME280;24244;51.950;5.902;2022-12-18T01:06:19;102800.78;;;-2.48;77.81
38466;BME280;24244;51.950;5.902;2022-12-18T01:08:46;102802.63;;;-2.50;77.55
38466;BME280;24244;51.950;5.902;2022-12-18T01:11:14;102803.56;;;-2.52;77.52
38466;BME280;24244;51.950;5.902;2022-12-18T01:13:42;102789.72;;;-2.54;77.92
38466;BME280;24244;51.950;5.902;2022-12-18T01:16:11;102789.81;;;-2.56;77.84
38466;BME280;24244;51.950;5.902;2022-12-18T01:18:38;102786.34;;;-2.56;77.94
38466;BME280;24244;51.950;5.902;2022-12-18T01:21:08;102782.09;;;-2.59;77.67
38466;BME280;24244;51.950;5.902;2022-12-18T01:23:35;102778.69;;;-2.61;77.67
38466;BME280;24244;51.950;5.902;2022-12-18T01:26:06;102770.91;;;-2.62;77.84
38466;BME280;24244;51.950;5.902;2022-12-18T01:28:33;102771.00;;;-2.64;77.72
38466;BME280;24244;51.950;5.902;2022-12-18T01:31:13;102771.94;;;-2.66;77.66
38466;BME280;24244;51.950;5.902;2022-12-18T01:33:40;102771.13;;;-2.68;77.27
38466;BME280;24244;51.950;5.902;2022-12-18T01:36:14;102780.69;;;-2.69;77.20
38466;BME280;24244;51.950;5.902;2022-12-18T01:38:41;102791.19;;;-2.70;77.05
38466;BME280;24244;51.950;5.902;2022-12-18T01:41:08;102796.41;;;-2.72;77.47
38466;BME280;24244;51.950;5.902;2022-12-18T01:43:47;102793.88;;;-2.73;77.38
38466;BME280;24244;51.950;5.902;2022-12-18T01:46:14;102798.22;;;-2.74;77.76
38466;BME280;24244;51.950;5.902;2022-12-18T01:48:41;102798.25;;;-2.76;77.27
38466;BME280;24244;51.950;5.902;2022-12-18T01:51:11;102802.69;;;-2.78;77.96
38466;BME280;24244;51.950;5.902;2022-12-18T01:53:40;102795.78;;;-2.79;76.97
38466;BME280;24244;51.950;5.902;2022-12-18T01:56:12;102799.28;;;-2.80;77.75
38466;BME280;24244;51.950;5.902;2022-12-18T01:58:46;102787.16;;;-2.81;77.42
38466;BME280;24244;51.950;5.902;2022-12-18T02:01:15;102796.75;;;-2.83;77.43
38466;BME280;24244;51.950;5.902;2022-12-18T02:03:43;102803.72;;;-2.83;77.31
38466;BME280;24244;51.950;5.902;2022-12-18T02:06:16;102795.91;;;-2.83;77.17
38466;BME280;24244;51.950;5.902;2022-12-18T02:08:50;102801.19;;;-2.85;77.48
38466;BME280;24244;51.950;5.902;2022-12-18T02:11:25;102799.56;;;-2.89;77.40
38466;BME280;24244;51.950;5.902;2022-12-18T02:14:04;102798.84;;;-2.92;77.15
38466;BME280;24244;51.950;5.902;2022-12-18T02:16:38;102801.56;;;-2.97;77.28
38466;BME280;24244;51.950;5.902;2022-12-18T02:19:18;102803.38;;;-2.99;77.56
38466;BME280;24244;51.950;5.902;2022-12-18T02:21:57;102797.41;;;-3.02;76.90
38466;BME280;24244;51.950;5.902;2022-12-18T02:24:33;102804.38;;;-3.03;77.60
38466;BME280;24244;51.950;5.902;2022-12-18T02:27:05;102797.47;;;-3.04;77.28
38466;BME280;24244;51.950;5.902;2022-12-18T02:29:36;102798.34;;;-3.05;77.14
38466;BME280;24244;51.950;5.902;2022-12-18T02:32:08;102788.03;;;-3.06;77.35
38466;BME280;24244;51.950;5.902;2022-12-18T02:34:39;102789.75;;;-3.07;77.56
38466;BME280;24244;51.950;5.902;2022-12-18T02:37:10;102787.16;;;-3.07;77.13
38466;BME280;24244;51.950;5.902;2022-12-18T02:39:40;102794.16;;;-3.09;77.34
38466;BME280;24244;51.950;5.902;2022-12-18T02:42:11;102796.81;;;-3.10;77.37
38466;BME280;24244;51.950;5.902;2022-12-18T02:44:44;102796.00;;;-3.12;77.21
38466;BME280;24244;51.950;5.902;2022-12-18T02:47:11;102791.72;;;-3.13;77.28
38466;BME280;24244;51.950;5.902;2022-12-18T02:49:48;102790.88;;;-3.14;77.07
38466;BME280;24244;51.950;5.902;2022-12-18T02:52:29;102790.06;;;-3.16;77.11
38466;BME280;24244;51.950;5.902;2022-12-18T02:55:08;102788.34;;;-3.17;77.25
38466;BME280;24244;51.950;5.902;2022-12-18T02:57:46;102793.59;;;-3.19;77.25
38466;BME280;24244;51.950;5.902;2022-12-18T03:00:19;102790.13;;;-3.19;76.66
38466;BME280;24244;51.950;5.902;2022-12-18T03:02:51;102793.59;;;-3.19;77.18
38466;BME280;24244;51.950;5.902;2022-12-18T03:05:23;102786.75;;;-3.21;77.10
38466;BME280;24244;51.950;5.902;2022-12-18T03:07:56;102784.19;;;-3.23;77.03
38466;BME280;24244;51.950;5.902;2022-12-18T03:10:26;102783.31;;;-3.22;76.87
38466;BME280;24244;51.950;5.902;2022-12-18T03:13:00;102783.31;;;-3.22;77.46
38466;BME280;24244;51.950;5.902;2022-12-18T03:15:30;102780.75;;;-3.23;77.15
38466;BME280;24244;51.950;5.902;2022-12-18T03:18:01;102770.34;;;-3.23;76.94
38466;BME280;24244;51.950;5.902;2022-12-18T03:20:30;102775.50;;;-3.22;77.39
38466;BME280;24244;51.950;5.902;2022-12-18T03:23:02;102771.22;;;-3.24;77.05
38466;BME280;24244;51.950;5.902;2022-12-18T03:25:30;102767.81;;;-3.26;77.01
38466;BME280;24244;51.950;5.902;2022-12-18T03:28:02;102766.22;;;-3.30;77.26
38466;BME280;24244;51.950;5.902;2022-12-18T03:30:30;102768.03;;;-3.32;77.15
38466;BME280;24244;51.950;5.902;2022-12-18T03:33:04;102769.03;;;-3.36;76.93
38466;BME280;24244;51.950;5.902;2022-12-18T03:35:33;102759.59;;;-3.40;76.56
38466;BME280;24244;51.950;5.902;2022-12-18T03:38:01;102767.50;;;-3.43;76.88
38466;BME280;24244;51.950;5.902;2022-12-18T03:40:35;102759.78;;;-3.46;76.69
38466;BME280;24244;51.950;5.902;2022-12-18T03:43:10;102745.09;;;-3.47;77.24
38466;BME280;24244;51.950;5.902;2022-12-18T03:45:41;102752.00;;;-3.46;76.89
38466;BME280;24244;51.950;5.902;2022-12-18T03:48:15;102736.44;;;-3.48;76.79
38466;BME280;24244;51.950;5.902;2022-12-18T03:50:48;102738.16;;;-3.47;76.88
38466;BME280;24244;51.950;5.902;2022-12-18T03:53:24;102739.91;;;-3.47;77.15
38466;BME280;24244;51.950;5.902;2022-12-18T03:55:52;102734.78;;;-3.49;77.37
38466;BME280;24244;51.950;5.902;2022-12-18T03:58:24;102740.81;;;-3.48;77.05
38466;BME280;24244;51.950;5.902;2022-12-18T04:00:54;102736.53;;;-3.49;76.91
38466;BME280;24244;51.950;5.902;2022-12-18T04:03:22;102734.81;;;-3.50;76.82
38466;BME280;24244;51.950;5.902;2022-12-18T04:06:03;102734.84;;;-3.52;77.15
38466;BME280;24244;51.950;5.902;2022-12-18T04:08:32;102724.47;;;-3.52;77.34
38466;BME280;24244;51.950;5.902;2022-12-18T04:11:01;102738.31;;;-3.51;77.15
38466;BME280;24244;51.950;5.902;2022-12-18T04:13:34;102741.72;;;-3.49;77.49
38466;BME280;24244;51.950;5.902;2022-12-18T04:16:01;102734.81;;;-3.50;76.90
38466;BME280;24244;51.950;5.902;2022-12-18T04:18:28;102733.16;;;-3.53;76.78
38466;BME280;24244;51.950;5.902;2022-12-18T04:20:55;102734.91;;;-3.53;77.24
38466;BME280;24244;51.950;5.902;2022-12-18T04:23:22;102730.59;;;-3.55;77.12
38466;BME280;24244;51.950;5.902;2022-12-18T04:25:49;102724.50;;;-3.53;77.27
38466;BME280;24244;51.950;5.902;2022-12-18T04:28:15;102714.09;;;-3.53;77.18
38466;BME280;24244;51.950;5.902;2022-12-18T04:30:44;102721.00;;;-3.52;77.12
38466;BME280;24244;51.950;5.902;2022-12-18T04:33:12;102713.16;;;-3.51;77.11
38466;BME280;24244;51.950;5.902;2022-12-18T04:35:41;102716.66;;;-3.52;76.99
38466;BME280;24244;51.950;5.902;2022-12-18T04:38:08;102713.25;;;-3.54;76.94
38466;BME280;24244;51.950;5.902;2022-12-18T04:40:37;102715.00;;;-3.55;77.25
38466;BME280;24244;51.950;5.902;2022-12-18T04:43:04;102719.34;;;-3.55;77.03
38466;BME280;24244;51.950;5.902;2022-12-18T04:45:32;102702.94;;;-3.56;77.20
38466;BME280;24244;51.950;5.902;2022-12-18T04:48:00;102707.19;;;-3.55;77.12
38466;BME280;24244;51.950;5.902;2022-12-18T04:50:28;102715.84;;;-3.54;77.05
38466;BME280;24244;51.950;5.902;2022-12-18T04:52:56;102720.19;;;-3.55;77.03
38466;BME280;24244;51.950;5.902;2022-12-18T04:55:26;102722.00;;;-3.57;76.98
38466;BME280;24244;51.950;5.902;2022-12-18T04:57:53;102727.22;;;-3.57;77.01
38466;BME280;24244;51.950;5.902;2022-12-18T05:00:20;102722.91;;;-3.58;77.23
38466;BME280;24244;51.950;5.902;2022-12-18T05:02:46;102725.50;;;-3.58;76.94
38466;BME280;24244;51.950;5.902;2022-12-18T05:05:15;102719.44;;;-3.58;76.57
38466;BME280;24244;51.950;5.902;2022-12-18T05:07:42;102729.00;;;-3.59;76.94
38466;BME280;24244;51.950;5.902;2022-12-18T05:10:09;102730.75;;;-3.59;77.03
38466;BME280;24244;51.950;5.902;2022-12-18T05:12:36;102732.50;;;-3.60;77.02
38466;BME280;24244;51.950;5.902;2022-12-18T05:15:28;102738.63;;;-3.62;76.86
38466;BME280;24244;51.950;5.902;2022-12-18T05:17:55;102744.78;;;-3.65;76.89
38466;BME280;24244;51.950;5.902;2022-12-18T05:20:24;102747.41;;;-3.66;77.06
38466;BME280;24244;51.950;5.902;2022-12-18T05:22:51;102759.59;;;-3.68;76.70
38466;BME280;24244;51.950;5.902;2022-12-18T05:25:19;102753.66;;;-3.72;77.36
38466;BME280;24244;51.950;5.902;2022-12-18T05:27:46;102765.78;;;-3.72;76.92
38466;BME280;24244;51.950;5.902;2022-12-18T05:30:14;102767.56;;;-3.74;76.84
38466;BME280;24244;51.950;5.902;2022-12-18T05:32:42;102773.78;;;-3.78;76.90
38466;BME280;24244;51.950;5.902;2022-12-18T05:35:10;102781.56;;;-3.78;77.05
38466;BME280;24244;51.950;5.902;2022-12-18T05:37:38;102779.88;;;-3.79;76.86
38466;BME280;24244;51.950;5.902;2022-12-18T05:40:12;102776.44;;;-3.81;76.92
38466;BME280;24244;51.950;5.902;2022-12-18T05:42:39;102787.72;;;-3.82;76.79
38466;BME280;24244;51.950;5.902;2022-12-18T05:45:07;102786.88;;;-3.83;76.87
38466;BME280;24244;51.950;5.902;2022-12-18T05:47:34;102791.19;;;-3.82;77.35
38466;BME280;24244;51.950;5.902;2022-12-18T05:50:01;102792.03;;;-3.81;76.55
38466;BME280;24244;51.950;5.902;2022-12-18T05:52:28;102782.53;;;-3.82;76.57
38466;BME280;24244;51.950;5.902;2022-12-18T05:54:57;102776.47;;;-3.83;77.21
38466;BME280;24244;51.950;5.902;2022-12-18T05:57:25;102766.91;;;-3.81;77.06
38466;BME280;24244;51.950;5.902;2022-12-18T05:59:52;102757.34;;;-3.79;77.09
38466;BME280;24244;51.950;5.902;2022-12-18T06:02:19;102747.84;;;-3.80;77.12
38466;BME280;24244;51.950;5.902;2022-12-18T06:04:47;102738.25;;;-3.78;76.88
38466;BME280;24244;51.950;5.902;2022-12-18T06:07:14;102733.09;;;-3.79;76.96
38466;BME280;24244;51.950;5.902;2022-12-18T06:09:41;102737.44;;;-3.80;76.67
38466;BME280;24244;51.950;5.902;2022-12-18T06:12:09;102734.84;;;-3.80;76.99
38466;BME280;24244;51.950;5.902;2022-12-18T06:14:37;102734.81;;;-3.78;76.78
38466;BME280;24244;51.950;5.902;2022-12-18T06:17:04;102725.19;;;-3.76;77.35
38466;BME280;24244;51.950;5.902;2022-12-18T06:19:30;102728.66;;;-3.76;77.01
38466;BME280;24244;51.950;5.902;2022-12-18T06:21:59;102724.31;;;-3.75;76.86
38466;BME280;24244;51.950;5.902;2022-12-18T06:24:28;102723.41;;;-3.74;76.91
38466;BME280;24244;51.950;5.902;2022-12-18T06:26:56;102720.78;;;-3.73;76.95
38466;BME280;24244;51.950;5.902;2022-12-18T06:29:30;102723.38;;;-3.73;77.35
38466;BME280;24244;51.950;5.902;2022-12-18T06:31:57;102722.47;;;-3.72;76.82
38466;BME280;24244;51.950;5.902;2022-12-18T06:34:24;102719.00;;;-3.71;76.81
38466;BME280;24244;51.950;5.902;2022-12-18T06:36:59;102707.69;;;-3.70;77.13
38466;BME280;24244;51.950;5.902;2022-12-18T06:39:31;102705.09;;;-3.70;77.10
38466;BME280;24244;51.950;5.902;2022-12-18T06:42:06;102711.97;;;-3.69;77.06
38466;BME280;24244;51.950;5.902;2022-12-18T06:44:38;102700.72;;;-3.69;77.48
38466;BME280;24244;51.950;5.902;2022-12-18T06:47:05;102701.56;;;-3.69;77.02
38466;BME280;24244;51.950;5.902;2022-12-18T06:49:33;102707.69;;;-3.70;77.24
38466;BME280;24244;51.950;5.902;2022-12-18T06:52:00;102699.06;;;-3.70;76.95
38466;BME280;24244;51.950;5.902;2022-12-18T06:54:27;102693.84;;;-3.70;77.14
38466;BME280;24244;51.950;5.902;2022-12-18T06:57:01;102686.00;;;-3.69;77.02
38466;BME280;24244;51.950;5.902;2022-12-18T06:59:28;102689.50;;;-3.70;77.25
38466;BME280;24244;51.950;5.902;2022-12-18T07:01:56;102685.22;;;-3.71;76.89
38466;BME280;24244;51.950;5.902;2022-12-18T07:04:27;102679.16;;;-3.71;76.82
38466;BME280;24244;51.950;5.902;2022-12-18T07:06:54;102678.28;;;-3.70;77.17
38466;BME280;24244;51.950;5.902;2022-12-18T07:09:21;102675.72;;;-3.72;77.31
38466;BME280;24244;51.950;5.902;2022-12-18T07:11:48;102680.06;;;-3.72;77.24
38466;BME280;24244;51.950;5.902;2022-12-18T07:14:14;102677.50;;;-3.74;77.36
38466;BME280;24244;51.950;5.902;2022-12-18T07:16:42;102679.25;;;-3.74;76.76
38466;BME280;24244;51.950;5.902;2022-12-18T07:19:10;102680.06;;;-3.72;77.23
38466;BME280;24244;51.950;5.902;2022-12-18T07:21:39;102688.66;;;-3.70;77.58
38466;BME280;24244;51.950;5.902;2022-12-18T07:24:07;102689.50;;;-3.70;76.92
38466;BME280;24244;51.950;5.902;2022-12-18T07:26:35;102692.13;;;-3.70;76.97
38466;BME280;24244;51.950;5.902;2022-12-18T07:29:02;102685.09;;;-3.68;77.17
38466;BME280;24244;51.950;5.902;2022-12-18T07:31:29;102684.25;;;-3.68;76.84
38466;BME280;24244;51.950;5.902;2022-12-18T07:33:58;102673.91;;;-3.70;76.69
38466;BME280;24244;51.950;5.902;2022-12-18T07:36:26;102673.06;;;-3.70;76.70
38466;BME280;24244;51.950;5.902;2022-12-18T07:38:56;102673.91;;;-3.70;77.13
38466;BME280;24244;51.950;5.902;2022-12-18T07:41:23;102664.31;;;-3.68;77.29
38466;BME280;24244;51.950;5.902;2022-12-18T07:43:51;102663.38;;;-3.65;76.83
38466;BME280;24244;51.950;5.902;2022-12-18T07:46:18;102654.69;;;-3.64;77.50
38466;BME280;24244;51.950;5.902;2022-12-18T07:48:47;102658.03;;;-3.61;77.02
38466;BME280;24244;51.950;5.902;2022-12-18T07:51:18;102652.81;;;-3.61;76.73
38466;BME280;24244;51.950;5.902;2022-12-18T07:53:48;102646.78;;;-3.61;76.80
38466;BME280;24244;51.950;5.902;2022-12-18T07:56:18;102638.97;;;-3.61;76.84
38466;BME280;24244;51.950;5.902;2022-12-18T07:58:58;102631.13;;;-3.60;76.92
38466;BME280;24244;51.950;5.902;2022-12-18T08:01:26;102631.94;;;-3.58;77.05
38466;BME280;24244;51.950;5.902;2022-12-18T08:03:54;102631.09;;;-3.58;76.80
38466;BME280;24244;51.950;5.902;2022-12-18T08:06:21;102634.50;;;-3.56;77.19
38466;BME280;24244;51.950;5.902;2022-12-18T08:08:55;102635.28;;;-3.54;77.07
38466;BME280;24244;51.950;5.902;2022-12-18T08:11:24;102626.53;;;-3.51;77.43
38466;BME280;24244;51.950;5.902;2022-12-18T08:13:51;102634.25;;;-3.48;77.17
38466;BME280;24244;51.950;5.902;2022-12-18T08:16:18;102622.06;;;-3.48;76.95
38466;BME280;24244;51.950;5.902;2022-12-18T08:18:46;102619.44;;;-3.46;77.22
38466;BME280;24244;51.950;5.902;2022-12-18T08:21:14;102616.78;;;-3.45;77.18
38466;BME280;24244;51.950;5.902;2022-12-18T08:26:47;102619.22;;;-3.40;76.84
38466;BME280;24244;51.950;5.902;2022-12-18T08:29:33;102620.03;;;-3.38;76.69
38466;BME280;24244;51.950;5.902;2022-12-18T08:32:00;102619.13;;;-3.37;77.15
38466;BME280;24244;51.950;5.902;2022-12-18T08:34:27;102614.75;;;-3.35;77.57
38466;BME280;24244;51.950;5.902;2022-12-18T08:36:54;102605.13;;;-3.33;76.87
38466;BME280;24244;51.950;5.902;2022-12-18T08:39:21;102602.44;;;-3.30;77.14
38466;BME280;24244;51.950;5.902;2022-12-18T08:41:49;102620.53;;;-3.27;77.33
38466;BME280;24244;51.950;5.902;2022-12-18T08:44:41;102616.91;;;-3.23;77.74
38466;BME280;24244;51.950;5.902;2022-12-18T08:47:08;102620.22;;;-3.18;77.62
38466;BME280;24244;51.950;5.902;2022-12-18T08:49:36;102620.13;;;-3.15;77.79
38466;BME280;24244;51.950;5.902;2022-12-18T08:52:03;102618.19;;;-3.10;77.44
38466;BME280;24244;51.950;5.902;2022-12-18T08:54:30;102624.88;;;-3.03;77.39
38466;BME280;24244;51.950;5.902;2022-12-18T08:56:59;102623.81;;;-2.97;77.33
38466;BME280;24244;51.950;5.902;2022-12-18T08:59:28;102621.84;;;-2.91;77.38
38466;BME280;24244;51.950;5.902;2022-12-18T09:01:55;102619.94;;;-2.86;77.36
38466;BME280;24244;51.950;5.902;2022-12-18T09:04:22;102618.88;;;-2.80;77.53
38466;BME280;24244;51.950;5.902;2022-12-18T09:06:50;102615.19;;;-2.74;77.62
38466;BME280;24244;51.950;5.902;2022-12-18T09:09:17;102622.78;;;-2.68;76.87
38466;BME280;24244;51.950;5.902;2022-12-18T09:11:44;102622.56;;;-2.62;77.44
38466;BME280;24244;51.950;5.902;2022-12-18T09:14:14;102621.56;;;-2.58;77.34
38466;BME280;24244;51.950;5.902;2022-12-18T09:16:43;102619.63;;;-2.53;77.42
38466;BME280;24244;51.950;5.902;2022-12-18T09:19:12;102613.41;;;-2.49;77.25
38466;BME280;24244;51.950;5.902;2022-12-18T09:21:42;102615.78;;;-2.43;77.23
38466;BME280;24244;51.950;5.902;2022-12-18T09:24:14;102613.84;;;-2.38;77.21
38466;BME280;24244;51.950;5.902;2022-12-18T09:26:41;102602.41;;;-2.34;77.23
38466;BME280;24244;51.950;5.902;2022-12-18T09:29:15;102602.28;;;-2.31;77.14
38466;BME280;24244;51.950;5.902;2022-12-18T09:31:44;102614.16;;;-2.24;77.01
38466;BME280;24244;51.950;5.902;2022-12-18T09:34:11;102612.22;;;-2.19;77.08
38466;BME280;24244;51.950;5.902;2022-12-18T09:36:38;102610.31;;;-2.14;76.99
38466;BME280;24244;51.950;5.902;2022-12-18T09:39:05;102600.63;;;-2.10;77.52
38466;BME280;24244;51.950;5.902;2022-12-18T09:41:43;102598.66;;;-2.05;77.51
38466;BME280;24244;51.950;5.902;2022-12-18T09:44:20;102605.44;;;-2.00;77.51
38466;BME280;24244;51.950;5.902;2022-12-18T09:46:55;102596.56;;;-1.95;76.72
38466;BME280;24244;51.950;5.902;2022-12-18T09:49:27;102593.75;;;-1.91;77.24
38466;BME280;24244;51.950;5.902;2022-12-18T09:52:00;102595.31;;;-1.85;76.95
38466;BME280;24244;51.950;5.902;2022-12-18T09:54:32;102595.16;;;-1.82;76.97
38466;BME280;24244;51.950;5.902;2022-12-18T09:57:00;102588.00;;;-1.77;77.16
38466;BME280;24244;51.950;5.902;2022-12-18T09:59:32;102587.81;;;-1.73;76.77
38466;BME280;24244;51.950;5.902;2022-12-18T10:02:12;102588.47;;;-1.68;77.29
38466;BME280;24244;51.950;5.902;2022-12-18T10:04:40;102572.63;;;-1.63;76.56
38466;BME280;24244;51.950;5.902;2022-12-18T10:07:12;102572.47;;;-1.59;77.00
38466;BME280;24244;51.950;5.902;2022-12-18T10:09:47;102560.13;;;-1.55;76.86
38466;BME280;24244;51.950;5.902;2022-12-18T10:12:26;102566.09;;;-1.51;77.12
38466;BME280;24244;51.950;5.902;2022-12-18T10:15:01;102571.94;;;-1.46;76.78
38466;BME280;24244;51.950;5.902;2022-12-18T10:17:37;102579.66;;;-1.43;77.08
38466;BME280;24244;51.950;5.902;2022-12-18T10:20:16;102568.16;;;-1.39;76.68
38466;BME280;24244;51.950;5.902;2022-12-18T10:22:51;102566.28;;;-1.36;77.09
38466;BME280;24244;51.950;5.902;2022-12-18T10:25:22;102559.16;;;-1.32;76.66
38466;BME280;24244;51.950;5.902;2022-12-18T10:27:53;102547.72;;;-1.28;76.40
38466;BME280;24244;51.950;5.902;2022-12-18T10:30:24;102548.41;;;-1.25;76.54
38466;BME280;24244;51.950;5.902;2022-12-18T10:32:52;102540.47;;;-1.22;76.87
38466;BME280;24244;51.950;5.902;2022-12-18T10:35:21;102534.25;;;-1.19;76.49
38466;BME280;24244;51.950;5.902;2022-12-18T10:38:06;102536.56;;;-1.13;76.65
38466;BME280;24244;51.950;5.902;2022-12-18T10:40:50;102536.44;;;-1.10;76.41
38466;BME280;24244;51.950;5.902;2022-12-18T10:43:21;102530.16;;;-1.06;76.79
38466;BME280;24244;51.950;5.902;2022-12-18T10:46:01;102530.84;;;-1.01;76.67
38466;BME280;24244;51.950;5.902;2022-12-18T10:48:30;102531.53;;;-0.97;76.31
38466;BME280;24244;51.950;5.902;2022-12-18T10:50:57;102527.88;;;-0.93;76.13
38466;BME280;24244;51.950;5.902;2022-12-18T10:53:40;102516.38;;;-0.89;76.31
38466;BME280;24244;51.950;5.902;2022-12-18T10:56:08;102513.66;;;-0.86;76.04
38466;BME280;24244;51.950;5.902;2022-12-18T10:58:37;102507.34;;;-0.82;76.19
38466;BME280;24244;51.950;5.902;2022-12-18T11:01:09;102497.63;;;-0.78;76.04
38466;BME280;24244;51.950;5.902;2022-12-18T11:03:40;102499.22;;;-0.76;76.43
38466;BME280;24244;51.950;5.902;2022-12-18T11:06:11;102498.09;;;-0.70;76.16
38466;BME280;24244;51.950;5.902;2022-12-18T11:08:39;102490.97;;;-0.67;75.80
38466;BME280;24244;51.950;5.902;2022-12-18T11:11:16;102494.28;;;-0.63;76.02
38466;BME280;24244;51.950;5.902;2022-12-18T11:13:55;102492.38;;;-0.60;76.20
38466;BME280;24244;51.950;5.902;2022-12-18T11:16:45;102494.84;;;-0.57;75.72
38466;BME280;24244;51.950;5.902;2022-12-18T11:19:34;102492.94;;;-0.53;76.13
38466;BME280;24244;51.950;5.902;2022-12-18T11:22:18;102485.78;;;-0.50;75.70
38466;BME280;24244;51.950;5.902;2022-12-18T11:24:52;102484.81;;;-0.47;75.73
38466;BME280;24244;51.950;5.902;2022-12-18T11:27:40;102468.16;;;-0.45;76.16
38466;BME280;24244;51.950;5.902;2022-12-18T11:30:08;102457.56;;;-0.42;75.75
38466;BME280;24244;51.950;5.902;2022-12-18T11:32:37;102448.72;;;-0.39;75.36
38466;BME280;24244;51.950;5.902;2022-12-18T11:35:13;102441.56;;;-0.35;75.40
38466;BME280;24244;51.950;5.902;2022-12-18T11:37:46;102443.13;;;-0.31;75.67
38466;BME280;24244;51.950;5.902;2022-12-18T11:40:17;102445.59;;;-0.28;75.96
38466;BME280;24244;51.950;5.902;2022-12-18T11:42:50;102446.28;;;-0.25;75.34
38466;BME280;24244;51.950;5.902;2022-12-18T11:45:28;102448.66;;;-0.20;75.41
38466;BME280;24244;51.950;5.902;2022-12-18T11:48:03;102455.44;;;-0.16;75.69
38466;BME280;24244;51.950;5.902;2022-12-18T11:50:38;102447.44;;;-0.13;75.09
38466;BME280;24244;51.950;5.902;2022-12-18T11:53:10;102446.53;;;-0.12;75.24
38466;BME280;24244;51.950;5.902;2022-12-18T11:55:41;102438.63;;;-0.11;75.70
38466;BME280;24244;51.950;5.902;2022-12-18T12:01:35;102437.47;;;-0.05;74.99
38466;BME280;24244;51.950;5.902;2022-12-18T12:04:31;102425.09;;;-0.02;75.15
38466;BME280;24244;51.950;5.902;2022-12-18T12:07:17;102420.53;;;0.02;75.54
38466;BME280;24244;51.950;5.902;2022-12-18T12:09:53;102413.41;;;0.06;75.15
38466;BME280;24244;51.950;5.902;2022-12-18T12:12:29;102412.38;;;0.08;75.22
38466;BME280;24244;51.950;5.902;2022-12-18T12:15:23;102400.88;;;0.12;75.26
38466;BME280;24244;51.950;5.902;2022-12-18T12:17:55;102398.06;;;0.15;75.50
38466;BME280;24244;51.950;5.902;2022-12-18T12:20:34;102397.00;;;0.19;75.48
38466;BME280;24244;51.950;5.902;2022-12-18T12:23:12;102386.47;;;0.21;74.93
38466;BME280;24244;51.950;5.902;2022-12-18T12:25:48;102393.31;;;0.23;75.18
38466;BME280;24244;51.950;5.902;2022-12-18T12:28:28;102389.69;;;0.26;74.92
38466;BME280;24244;51.950;5.902;2022-12-18T12:31:02;102400.09;;;0.27;74.70
38466;BME280;24244;51.950;5.902;2022-12-18T12:33:37;102391.31;;;0.28;74.53
38466;BME280;24244;51.950;5.902;2022-12-18T12:36:17;102392.91;;;0.31;75.10
38466;BME280;24244;51.950;5.902;2022-12-18T12:38:50;102384.13;;;0.32;74.54
38466;BME280;24244;51.950;5.902;2022-12-18T12:41:22;102383.16;;;0.34;74.74
38466;BME280;24244;51.950;5.902;2022-12-18T12:44:19;102372.50;;;0.37;74.87
38466;BME280;24244;51.950;5.902;2022-12-18T12:46:49;102370.66;;;0.39;74.62
38466;BME280;24244;51.950;5.902;2022-12-18T12:49:18;102369.66;;;0.42;74.87
38466;BME280;24244;51.950;5.902;2022-12-18T12:51:57;102365.16;;;0.44;74.64
38466;BME280;24244;51.950;5.902;2022-12-18T12:54:26;102360.72;;;0.46;75.00
38466;BME280;24244;51.950;5.902;2022-12-18T12:57:00;102348.41;;;0.48;74.62
38466;BME280;24244;51.950;5.902;2022-12-18T13:02:59;102346.44;;;0.52;74.90
38466;BME280;24244;51.950;5.902;2022-12-18T13:05:33;102341.16;;;0.53;75.05
38466;BME280;24244;51.950;5.902;2022-12-18T13:08:04;102334.91;;;0.56;74.97
38466;BME280;24244;51.950;5.902;2022-12-18T13:10:35;102326.16;;;0.57;75.13
38466;BME280;24244;51.950;5.902;2022-12-18T13:13:04;102333.03;;;0.58;74.24
38466;BME280;24244;51.950;5.902;2022-12-18T13:15:38;102328.56;;;0.60;74.55
38466;BME280;24244;51.950;5.902;2022-12-18T13:18:18;102333.72;;;0.61;74.54
38466;BME280;24244;51.950;5.902;2022-12-18T13:20:46;102324.13;;;0.62;74.67